createdAt,value
2024-03-26T00:00:22.084Z,4169.6
2024-03-26T00:05:57.179Z,4173.8
2024-03-26T00:11:32.358Z,4173.4
2024-03-26T00:17:07.738Z,4173.6
2024-03-26T00:22:42.877Z,4171.9
2024-03-26T00:28:17.937Z,4172.1
2024-03-26T00:33:53.359Z,4170.6
2024-03-26T00:39:28.412Z,4170.4
2024-03-26T00:45:10.113Z,4169.9
2024-03-26T00:50:46.197Z,4172.1
2024-03-26T00:56:21.053Z,4170.1
2024-03-26T01:01:56.930Z,4165.4
2024-03-26T01:07:32.616Z,4166.6
2024-03-26T01:13:07.327Z,4169.9
2024-03-26T01:18:42.379Z,4168.7
2024-03-26T01:24:17.615Z,4167.6
2024-03-26T01:29:52.622Z,4166.9
2024-03-26T01:35:27.791Z,4169.2
2024-03-26T01:41:02.965Z,4164.9
2024-03-26T01:46:37.909Z,4163.2
2024-03-26T01:52:12.860Z,4163.7
2024-03-26T01:57:48.466Z,4166.9
2024-03-26T02:03:23.286Z,4166.1
2024-03-26T02:08:58.460Z,4164.7
2024-03-26T02:14:34.144Z,4165.2
2024-03-26T02:20:10.194Z,4164.7
2024-03-26T02:25:45.341Z,4164.2
2024-03-26T02:31:21.172Z,4165.1
2024-03-26T02:36:56.246Z,4162.7
2024-03-26T02:42:31.645Z,4160.5
2024-03-26T02:48:07.086Z,4157.4
2024-03-26T02:53:42.201Z,4161.7
2024-03-26T02:59:17.416Z,4162.4
2024-03-26T03:04:52.867Z,4160.5
2024-03-26T03:10:28.015Z,4159.4
2024-03-26T03:16:02.866Z,4159.9
2024-03-26T03:21:38.398Z,4158
2024-03-26T03:27:13.317Z,4160.5
2024-03-26T03:32:49.278Z,4159.2
2024-03-26T03:38:24.903Z,4159.4
2024-03-26T03:43:59.770Z,4158.2
2024-03-26T03:49:34.619Z,4155.7
2024-03-26T03:55:09.706Z,4157.7
2024-03-26T04:00:44.857Z,4156.7
2024-03-26T04:06:19.905Z,4157.9
2024-03-26T04:11:57.167Z,4158.7
2024-03-26T04:17:32.482Z,4155.7
2024-03-26T04:23:07.560Z,4154.3
2024-03-26T04:28:43.177Z,4154.8
2024-03-26T04:34:18.251Z,4155
2024-03-26T04:39:53.187Z,4157
2024-03-26T04:45:28.057Z,4155.3
2024-03-26T04:51:03.118Z,4154.7
2024-03-26T04:56:38.211Z,4152.5
2024-03-26T05:02:13.601Z,4150.1
2024-03-26T05:07:48.547Z,4151.3
2024-03-26T05:13:23.742Z,4152.8
2024-03-26T05:18:58.878Z,4153.8
2024-03-26T05:24:33.852Z,4150.8
2024-03-26T05:30:08.779Z,4150.5
2024-03-26T05:35:44.368Z,4150
2024-03-26T05:41:19.691Z,4149.8
2024-03-26T05:46:54.886Z,4148.1
2024-03-26T05:52:30.734Z,4148.8
2024-03-26T05:58:06.073Z,4148.8
2024-03-26T06:03:41.475Z,4149.6
2024-03-26T06:09:16.703Z,4150.8
2024-03-26T06:14:53.240Z,4149.1
2024-03-26T06:20:28.167Z,4148.6
2024-03-26T06:26:03.870Z,4147.8
2024-03-26T06:31:39.442Z,4148
2024-03-26T06:37:14.730Z,4148
2024-03-26T06:42:51.186Z,4149.8
2024-03-26T06:48:26.388Z,4146.3
2024-03-26T06:54:02.786Z,4146.1
2024-03-26T06:59:38.112Z,4147
2024-03-26T07:05:13.330Z,4145
2024-03-26T07:10:48.480Z,4144.3
2024-03-26T07:16:23.980Z,4143.1
2024-03-26T07:21:58.838Z,4144.5
2024-03-26T07:27:33.621Z,4141.9
2024-03-26T07:33:08.995Z,4140.4
2024-03-26T07:38:44.155Z,4142.9
2024-03-26T07:44:18.848Z,4140.6
2024-03-26T07:49:54.981Z,4136.9
2024-03-26T07:55:30.392Z,4137.1
2024-03-26T08:01:05.779Z,4138.9
2024-03-26T08:06:42.936Z,4140.1
2024-03-26T08:12:18.429Z,4141.1
2024-03-26T08:17:54.057Z,4146.8
2024-03-26T08:23:30.023Z,4148.8
2024-03-26T08:29:05.406Z,4143.8
2024-03-26T08:34:41.536Z,4143.1
2024-03-26T08:40:16.759Z,4138.1
2024-03-26T08:45:51.797Z,4140.1
2024-03-26T08:51:26.712Z,4137.8
2024-03-26T08:57:02.751Z,4139.3
2024-03-26T09:02:37.664Z,4137.2
2024-03-26T09:08:12.349Z,4137.9
2024-03-26T09:13:48.228Z,4137.2
2024-03-26T09:19:23.630Z,4141.9
2024-03-26T09:24:58.677Z,4145.3
2024-03-26T09:30:34.438Z,4148
2024-03-26T09:36:09.606Z,4149.3
2024-03-26T09:41:44.455Z,4149.3
2024-03-26T09:47:20.529Z,4154.7
2024-03-26T09:52:55.510Z,4153.7
2024-03-26T09:58:31.247Z,4155.3
2024-03-26T10:04:07.084Z,4157.7
2024-03-26T10:09:42.067Z,4153.8
2024-03-26T10:15:16.928Z,4156.5
2024-03-26T10:20:52.819Z,4158.4
2024-03-26T10:26:29.074Z,4181.8
2024-03-26T10:32:04.335Z,4191.2
2024-03-26T10:37:39.682Z,4201.7
2024-03-26T10:43:14.991Z,4199.1
2024-03-26T10:49:02.860Z,4212.5
2024-03-26T10:54:38.527Z,4197
2024-03-26T11:00:14.211Z,4200.4
2024-03-26T11:05:49.402Z,4209.6
2024-03-26T11:11:24.447Z,4215.3
2024-03-26T11:16:59.781Z,4217.3
2024-03-26T11:22:35.169Z,4213.1
2024-03-26T11:28:10.885Z,4211.1
2024-03-26T11:33:46.198Z,4215
2024-03-26T11:39:21.465Z,4205.8
2024-03-26T11:44:57.063Z,4201.2
2024-03-26T11:50:32.282Z,4203.7
2024-03-26T11:56:07.340Z,4208.4
2024-03-26T12:01:43.811Z,4217.7
2024-03-26T12:07:19.189Z,4201.7
2024-03-26T12:12:54.095Z,4205.6
2024-03-26T12:18:29.447Z,4226.2
2024-03-26T12:24:04.901Z,4215.8
2024-03-26T12:29:39.992Z,4213.3
2024-03-26T12:35:16.244Z,4222.7
2024-03-26T12:40:51.148Z,4211.5
2024-03-26T12:46:26.602Z,4211.1
2024-03-26T12:52:02.552Z,4221
2024-03-26T12:57:37.568Z,4215.5
2024-03-26T13:03:12.428Z,4207.1
2024-03-26T13:08:47.607Z,4215.8
2024-03-26T13:14:23.293Z,4227
2024-03-26T13:19:59.632Z,4223
2024-03-26T13:25:35.067Z,4209.4
2024-03-26T13:31:10.222Z,4221.3
2024-03-26T13:36:46.427Z,4212.6
2024-03-26T13:42:21.614Z,4215.1
2024-03-26T13:47:57.898Z,4218.7
2024-03-26T13:53:33.633Z,4213.6
2024-03-26T13:59:09.890Z,4213
2024-03-26T14:04:45.335Z,4222
2024-03-26T14:10:20.402Z,4218.5
2024-03-26T14:15:55.668Z,4209.9
2024-03-26T14:21:31.286Z,4210.1
2024-03-26T14:27:06.735Z,4209.4
2024-03-26T14:32:42.115Z,4206.1
2024-03-26T14:38:17.020Z,4205.4
2024-03-26T14:43:52.719Z,4199.2
2024-03-26T14:49:27.751Z,4198.1
2024-03-26T14:55:03.556Z,4196.4
2024-03-26T15:00:38.680Z,4195.2
2024-03-26T15:06:14.330Z,4196.2
2024-03-26T15:11:49.548Z,4192
2024-03-26T15:17:24.553Z,4198.2
2024-03-26T15:22:59.699Z,4192.4
2024-03-26T15:28:34.906Z,4194.9
2024-03-26T15:34:10.074Z,4193.5
2024-03-26T15:39:45.773Z,4195.4
2024-03-26T15:45:20.767Z,4194.4
2024-03-26T15:50:55.865Z,4198.7
2024-03-26T15:56:31.311Z,4197.9
2024-03-26T16:02:06.659Z,4194.4
2024-03-26T16:07:41.800Z,4195
2024-03-26T16:13:17.351Z,4196.9
2024-03-26T16:18:52.638Z,4200.9
2024-03-26T16:24:28.301Z,4199.2
2024-03-26T16:30:04.221Z,4197.6
2024-03-26T16:35:39.168Z,4197.4
2024-03-26T16:41:14.299Z,4203.2
2024-03-26T16:46:49.922Z,4206.4
2024-03-26T16:52:25.644Z,4202.6
2024-03-26T16:58:00.700Z,4200.2
2024-03-26T17:03:36.368Z,4193.5
2024-03-26T17:09:11.588Z,4194.4
2024-03-26T17:14:47.406Z,4195.7
2024-03-26T17:20:23.304Z,4196.2
2024-03-26T17:25:58.654Z,4195.7
2024-03-26T17:31:34.090Z,4193.9
2024-03-26T17:37:09.302Z,4189.7
2024-03-26T17:42:44.215Z,4193.7
2024-03-26T17:48:19.133Z,4185.7
2024-03-26T17:53:54.751Z,4186.5
2024-03-26T17:59:30.196Z,4183.6
2024-03-26T18:05:05.034Z,4182.6
2024-03-26T18:10:40.381Z,4180
2024-03-26T18:16:15.926Z,4181.6
2024-03-26T18:21:51.341Z,4180.3
2024-03-26T18:27:26.286Z,4177.1
2024-03-26T18:33:01.723Z,4180
2024-03-26T18:38:37.053Z,4177.4
2024-03-26T18:44:12.308Z,4178.6
2024-03-26T18:49:47.493Z,4176.8
2024-03-26T18:55:22.570Z,4176.1
2024-03-26T19:00:58.082Z,4178.1
2024-03-26T19:06:33.515Z,4174.3
2024-03-26T19:12:09.231Z,4173.8
2024-03-26T19:17:45.463Z,4174.6
2024-03-26T19:23:20.518Z,4173.9
2024-03-26T19:28:55.726Z,4174.3
2024-03-26T19:34:30.953Z,4172.8
2024-03-26T19:40:06.266Z,4175.3
2024-03-26T19:45:41.412Z,4173.6
2024-03-26T19:51:17.394Z,4172.3
2024-03-26T19:56:52.289Z,4173.4
2024-03-26T20:02:27.664Z,4173.6
2024-03-26T20:08:03.246Z,4170.9
2024-03-26T20:13:38.610Z,4169.7
2024-03-26T20:19:13.491Z,4169.1
2024-03-26T20:24:49.072Z,4169.9
2024-03-26T20:30:24.477Z,4168.7
2024-03-26T20:35:59.518Z,4170.2
2024-03-26T20:41:34.841Z,4169.6
2024-03-26T20:47:09.943Z,4166.4
2024-03-26T20:52:45.002Z,4166.1
2024-03-26T20:58:20.638Z,4166.9
2024-03-26T21:03:55.944Z,4166.1
2024-03-26T21:09:30.985Z,4164
2024-03-26T21:15:31.038Z,4164.4
2024-03-26T21:21:06.430Z,4162.7
2024-03-26T21:26:41.479Z,4164.7
2024-03-26T21:32:16.549Z,4163.7
2024-03-26T21:37:51.715Z,4161.2
2024-03-26T21:43:26.945Z,4168.4
2024-03-26T21:49:02.276Z,4167.1
2024-03-26T21:54:37.459Z,4165.6
2024-03-26T22:00:12.869Z,4164.1
2024-03-26T22:05:47.949Z,4161
2024-03-26T22:11:23.010Z,4162.5
2024-03-26T22:16:58.172Z,4161.7
2024-03-26T22:22:33.137Z,4161.2
2024-03-26T22:28:08.161Z,4160.7
2024-03-26T22:33:42.969Z,4160.2
2024-03-26T22:39:18.652Z,4159.2
2024-03-26T22:44:53.584Z,4162
2024-03-26T22:50:28.419Z,4159.7
2024-03-26T22:56:03.695Z,4158.2
2024-03-26T23:01:38.730Z,4157.7
2024-03-26T23:07:13.990Z,4155.2
2024-03-26T23:12:49.179Z,4156.3
2024-03-26T23:18:24.726Z,4154.7
2024-03-26T23:23:59.711Z,4157
2024-03-26T23:29:35.045Z,4156.8
2024-03-26T23:35:10.012Z,4152.8
2024-03-26T23:40:45.521Z,4155.2
2024-03-26T23:46:20.948Z,4153.8
2024-03-26T23:51:55.930Z,4152.8
2024-03-26T23:57:31.356Z,4154.2
